Time;durP1;ratioP1;P1;durP2;ratioP2;P2;SDS_P1;SDS_P2;PMS_P1;PMS_P2;Temp;Humidity;BMP_temperature;BMP_pressure;BME280_temperature;BME280_humidity;BME280_pressure;Samples;Min_cycle;Max_cycle;Signal;HPM_P1;HPM_P2
2022/11/08 00:01:30;;;;;;;5.05;2.03;;;11.00;78.60;;;14.01;50.45;97558.13;4909199;29;20055;-57
2022/11/08 00:03:11;;;;;;;3.73;2.07;;;11.00;78.70;;;13.98;50.47;97570.88;4909119;29;20048;-52
2022/11/08 00:13:59;;;;;;;5.27;2.53;;;10.80;79.00;;;13.88;50.45;97558.75;4908729;29;20064;-56
2022/11/08 00:16:28;;;;;;;3.10;2.20;;;10.80;78.90;;;13.84;50.52;97552.97;4908826;29;20056;-54
2022/11/08 00:18:57;;;;;;;4.13;2.40;;;10.80;78.90;;;13.84;50.41;97547.63;4908901;29;20070;-56
2022/11/08 00:21:25;;;;;;;6.37;2.50;;;10.80;78.70;;;13.74;50.54;97555.06;4908567;29;20041;-54
2022/11/08 00:23:53;;;;;;;4.70;2.60;;;10.60;79.30;;;13.71;50.61;97558.13;4908517;29;20060;-53
2022/11/08 00:26:21;;;;;;;4.33;2.40;;;10.60;79.60;;;13.65;50.49;97545.47;4908225;29;20063;-53
2022/11/08 00:28:49;;;;;;;4.90;2.60;;;10.50;79.80;;;13.62;50.64;97552.03;4908832;29;20048;-54
2022/11/08 00:31:17;;;;;;;3.37;2.10;;;10.50;79.80;;;13.62;50.69;97543.16;4908351;29;20055;-54
2022/11/08 00:33:45;;;;;;;3.77;2.30;;;10.50;79.80;;;13.64;50.48;97549.16;4908171;29;20037;-54
2022/11/08 00:36:14;;;;;;;4.30;2.23;;;10.50;79.60;;;13.65;50.50;97549.00;4908932;29;20053;-53
2022/11/08 00:38:43;;;;;;;4.87;2.23;;;10.50;79.40;;;13.66;50.45;97539.94;4908279;29;20062;-53
2022/11/08 00:41:11;;;;;;;6.57;2.10;;;10.60;79.20;;;13.67;50.24;97532.75;4907466;29;20064;-54
2022/11/08 00:43:39;;;;;;;3.70;2.20;;;10.60;79.00;;;13.64;50.18;97525.91;4913400;29;20254;-54
2022/11/08 00:46:08;;;;;;;3.20;2.57;;;10.50;79.00;;;13.64;50.48;97533.13;4927368;29;20052;-55
2022/11/08 00:48:36;;;;;;;4.20;2.07;;;10.60;79.10;;;13.62;50.30;97535.97;4925982;29;20062;-52
2022/11/08 00:51:08;;;;;;;4.03;2.47;;;10.60;78.80;;;13.60;50.31;97540.66;4927014;29;20064;-53
2022/11/08 00:53:38;;;;;;;4.00;2.43;;;10.50;78.80;;;13.54;50.35;97533.38;4924788;29;20064;-51
2022/11/08 00:56:10;;;;;;;3.67;3.07;;;10.40;79.00;;;13.51;50.51;97531.06;4926684;29;20056;-57
2022/11/08 00:58:42;;;;;;;3.13;2.37;;;10.40;79.30;;;13.47;50.49;97522.56;4925988;29;20052;-54
2022/11/08 01:01:15;;;;;;;4.03;2.50;;;10.40;79.60;;;13.47;50.66;97516.41;4927146;29;20062;-56
2022/11/08 01:03:44;;;;;;;2.80;2.33;;;10.40;79.70;;;13.48;50.56;97520.75;4926410;29;20044;-53
2022/11/08 01:06:15;;;;;;;4.40;2.37;;;10.40;79.50;;;13.50;50.63;97510.69;4927368;29;20330;-52
2022/11/08 01:08:43;;;;;;;3.63;2.40;;;10.40;79.50;;;13.52;50.60;97519.38;4926909;29;20320;-57
2022/11/08 01:11:16;;;;;;;3.43;2.50;;;10.50;79.30;;;13.51;50.61;97513.19;4925335;29;20054;-53
2022/11/08 01:13:44;;;;;;;4.10;2.80;;;10.50;79.20;;;13.51;50.78;97512.34;4925542;29;20078;-52
2022/11/08 01:16:20;;;;;;;3.60;2.60;;;10.50;79.20;;;13.52;50.74;97508.66;4925616;29;20056;-56
2022/11/08 01:18:51;;;;;;;3.67;2.60;;;10.60;79.10;;;13.54;50.68;97509.31;4926926;29;20245;-53
2022/11/08 01:21:20;;;;;;;3.83;2.90;;;10.50;79.10;;;13.50;50.68;97503.50;4926349;29;20058;-56
2022/11/08 01:23:49;;;;;;;5.47;2.70;;;10.50;79.10;;;13.46;50.85;97504.06;4926141;29;20059;-55
2022/11/08 01:26:24;;;;;;;4.13;2.30;;;10.40;79.60;;;13.41;50.90;97503.75;4925154;29;20050;-55
2022/11/08 01:28:54;;;;;;;3.17;2.17;;;10.30;80.30;;;13.40;51.08;97516.31;4926716;29;20048;-57
2022/11/08 01:31:29;;;;;;;4.10;2.83;;;10.30;80.40;;;13.38;51.03;97511.13;4926309;29;20047;-53
2022/11/08 01:33:58;;;;;;;6.50;2.80;;;10.30;80.60;;;13.40;51.10;97508.28;4925871;29;20074;-54
2022/11/08 01:36:28;;;;;;;4.93;2.80;;;10.40;81.80;;;13.42;51.24;97510.78;4925316;29;20056;-56
2022/11/08 01:38:57;;;;;;;5.10;2.80;;;10.40;80.70;;;13.42;50.95;97508.13;4926393;29;20052;-53
2022/11/08 01:41:26;;;;;;;5.13;2.87;;;10.40;80.80;;;13.42;51.14;97505.44;4925852;29;20051;-53
2022/11/08 01:43:58;;;;;;;4.40;2.80;;;10.40;80.60;;;13.44;51.26;97498.06;4916096;29;20238;-52
2022/11/08 01:46:41;;;;;;;4.17;2.93;;;10.40;80.60;;;13.45;51.25;97494.34;4907722;29;20057;-52
2022/11/08 01:49:25;;;;;;;5.28;3.35;;;10.40;80.90;;;13.44;51.21;97487.38;4906401;29;20055;-55
2022/11/08 01:52:14;;;;;;;5.13;3.13;;;10.50;80.60;;;13.40;51.25;97486.91;4905603;29;20052;-53
2022/11/08 01:55:01;;;;;;;3.67;2.70;;;10.50;80.70;;;13.37;51.50;97487.25;4906627;29;20082;-54
2022/11/08 01:57:56;;;;;;;4.97;3.27;;;10.50;80.60;;;13.35;51.39;97476.72;4907211;29;20048;-56
2022/11/08 02:00:24;;;;;;;6.07;3.20;;;10.40;80.40;;;13.34;51.34;97466.25;4907324;29;20377;-56
2022/11/08 02:03:00;;;;;;;5.97;3.60;;;10.40;80.80;;;13.34;51.42;97469.75;4904973;29;20220;-55
2022/11/08 02:05:30;;;;;;;6.87;3.80;;;10.40;80.70;;;13.29;51.48;97466.75;4905797;29;20052;-52
2022/11/08 02:08:26;;;;;;;4.33;3.10;;;10.40;80.80;;;13.19;51.71;97461.66;4906040;29;20044;-54
2022/11/08 02:10:54;;;;;;;4.83;3.03;;;10.40;80.70;;;13.19;51.53;97455.50;4906831;29;20058;-51
2022/11/08 02:13:29;;;;;;;4.13;3.03;;;10.40;80.60;;;13.16;51.65;97442.47;4907070;29;20351;-52
2022/11/08 02:15:57;;;;;;;4.80;3.10;;;10.40;80.70;;;13.09;51.80;97445.06;4904288;29;20220;-55
2022/11/08 02:18:28;;;;;;;4.87;2.97;;;10.30;80.70;;;13.12;51.71;97443.84;4906731;29;20056;-53
2022/11/08 02:21:35;;;;;;;5.87;3.03;;;10.30;80.70;;;13.05;51.90;97442.94;4905729;29;20251;-53
2022/11/08 02:24:10;;;;;;;8.43;3.33;;;10.40;80.80;;;13.06;52.13;97433.91;4895114;29;20060;-56
2022/11/08 02:26:39;;;;;;;3.73;2.77;;;10.30;80.70;;;13.05;51.72;97435.75;4905619;29;20063;-56
2022/11/08 02:29:34;;;;;;;6.17;3.30;;;10.30;80.60;;;13.01;52.09;97426.44;4906152;29;20355;-54
2022/11/08 02:32:04;;;;;;;4.83;3.10;;;10.30;80.80;;;13.00;51.73;97427.44;4906771;29;20062;-55
2022/11/08 02:34:48;;;;;;;4.70;3.57;;;10.30;80.60;;;12.98;52.02;97426.78;4907018;29;20052;-51
2022/11/08 02:37:19;;;;;;;3.90;3.45;;;10.20;80.70;;;12.97;52.06;97427.81;4910592;29;20048;-51
2022/11/08 02:39:47;;;;;;;6.00;3.20;;;10.20;80.50;;;12.89;52.04;97425.22;4909555;29;20242;-55
2022/11/08 02:42:18;;;;;;;4.33;3.03;;;10.20;80.50;;;12.87;51.99;97419.22;4909931;29;20055;-57
2022/11/08 02:44:47;;;;;;;4.23;2.43;;;10.20;80.60;;;12.85;52.03;97415.91;4925629;29;20054;-54
2022/11/08 02:47:15;;;;;;;4.33;2.90;;;10.10;80.50;;;12.87;52.13;97420.06;4928513;29;20052;-52
2022/11/08 02:49:43;;;;;;;5.30;2.70;;;10.20;80.60;;;12.87;51.96;97412.06;4929468;29;20048;-52
2022/11/08 02:52:12;;;;;;;5.77;3.90;;;10.20;80.50;;;12.89;52.01;97417.19;4929484;29;20052;-55
2022/11/08 02:54:40;;;;;;;3.73;2.80;;;10.20;80.30;;;12.90;52.17;97414.34;4929068;29;20353;-52
2022/11/08 02:57:08;;;;;;;5.13;3.60;;;10.10;80.50;;;12.94;51.85;97415.63;4929271;29;20376;-56
2022/11/08 02:59:36;;;;;;;3.80;2.80;;;10.10;80.40;;;12.95;51.99;97408.44;4929044;29;20074;-52
2022/11/08 03:02:04;;;;;;;5.90;4.20;;;10.00;80.60;;;12.93;51.74;97410.47;4928314;29;20055;-54
2022/11/08 03:04:32;;;;;;;4.87;2.87;;;10.00;80.90;;;12.93;51.66;97408.66;4928348;29;20050;-53
2022/11/08 03:07:00;;;;;;;4.80;2.50;;;10.00;80.90;;;12.92;51.74;97415.00;4928994;29;20052;-54
2022/11/08 03:09:29;;;;;;;4.83;2.57;;;10.00;80.60;;;12.94;51.75;97404.13;4928919;29;20238;-53
2022/11/08 03:11:57;;;;;;;5.20;2.57;;;10.10;80.60;;;12.88;51.62;97403.00;4928717;29;20082;-55
2022/11/08 03:14:25;;;;;;;4.13;2.97;;;10.10;80.30;;;12.83;51.64;97409.91;4929077;29;20056;-56
2022/11/08 03:16:53;;;;;;;4.03;3.40;;;10.10;80.10;;;12.80;52.02;97408.44;4928378;29;20055;-56
2022/11/08 03:19:21;;;;;;;5.33;3.27;;;10.00;80.50;;;12.83;51.74;97409.91;4928472;29;20054;-52
2022/11/08 03:21:49;;;;;;;3.57;2.70;;;10.00;80.50;;;12.84;51.83;97407.06;4928828;29;20048;-55
2022/11/08 03:24:17;;;;;;;5.43;3.00;;;10.00;80.50;;;12.87;51.67;97405.84;4928425;29;20048;-54
2022/11/08 03:26:45;;;;;;;5.47;3.33;;;10.00;80.60;;;12.86;51.68;97413.06;4928471;29;20052;-54
2022/11/08 03:29:13;;;;;;;5.60;2.73;;;9.90;80.60;;;12.85;51.69;97405.22;4927761;29;20384;-55
2022/11/08 03:31:41;;;;;;;4.30;3.27;;;9.80;80.70;;;12.82;51.74;97402.91;4927716;29;20432;-55
2022/11/08 03:34:10;;;;;;;6.97;3.27;;;9.70;81.00;;;12.78;51.66;97416.63;4928214;29;20074;-55
2022/11/08 03:36:38;;;;;;;4.03;2.90;;;9.70;81.50;;;12.75;51.45;97408.97;4928275;29;20380;-53
2022/11/08 03:39:06;;;;;;;4.30;2.80;;;9.70;81.70;;;12.69;51.72;97407.00;4928560;29;20216;-54
2022/11/08 03:41:34;;;;;;;4.33;2.40;;;9.60;82.10;;;12.67;51.79;97413.56;4926719;29;20066;-53
2022/11/08 03:44:03;;;;;;;3.67;2.60;;;9.60;82.10;;;12.67;52.00;97409.03;4917939;29;20060;-55
2022/11/08 03:46:31;;;;;;;3.00;2.10;;;9.60;81.90;;;12.70;51.79;97410.53;4907918;29;20048;-52
2022/11/08 03:48:59;;;;;;;3.83;2.37;;;9.70;81.70;;;12.73;51.61;97407.50;4909147;29;20369;-55
2022/11/08 03:51:27;;;;;;;3.43;2.57;;;9.70;81.40;;;12.74;51.50;97406.50;4909565;29;20239;-56
2022/11/08 03:53:55;;;;;;;5.43;2.63;;;9.70;81.00;;;12.74;51.69;97399.31;4908749;29;20052;-53
2022/11/08 03:56:23;;;;;;;4.70;2.57;;;9.70;81.10;;;12.75;51.49;97408.13;4908963;29;20051;-51
2022/11/08 03:58:51;;;;;;;4.43;2.53;;;9.70;81.10;;;12.72;51.39;97397.84;4909107;29;20056;-56
2022/11/08 04:01:19;;;;;;;4.00;2.20;;;9.70;81.10;;;12.70;51.50;97408.69;4909274;29;20059;-52
2022/11/08 04:03:47;;;;;;;3.30;2.20;;;9.60;81.10;;;12.74;51.37;97398.47;4922597;29;20056;-54
2022/11/08 04:06:16;;;;;;;4.33;2.50;;;9.70;81.00;;;12.72;51.69;97403.16;4909301;29;20052;-55
2022/11/08 04:08:44;;;;;;;2.30;2.00;;;9.70;80.50;;;12.72;51.31;97398.66;4908795;29;20055;-55
2022/11/08 04:16:45;;;;;;;5.27;2.60;;;9.70;80.60;;;12.71;51.32;97394.31;4909007;29;20082;-54
2022/11/08 04:22:00;;;;;;;3.73;2.90;;;9.70;80.90;;;12.75;51.75;97390.25;4908975;29;20059;-54
2022/11/08 04:24:28;;;;;;;4.00;2.00;;;9.80;80.80;;;12.75;51.61;97381.44;4908118;29;20052;-52
2022/11/08 04:26:56;;;;;;;4.17;2.43;;;9.80;80.70;;;12.72;51.72;97390.63;4908864;29;20044;-55
2022/11/08 04:29:25;;;;;;;4.93;2.30;;;9.80;80.70;;;12.77;51.55;97379.41;4908705;29;20049;-54
2022/11/08 04:31:53;;;;;;;3.67;2.97;;;9.90;80.80;;;12.78;51.60;97378.41;4908641;29;20056;-55
2022/11/08 04:34:21;;;;;;;5.10;2.80;;;9.90;80.60;;;12.78;51.83;97365.88;4908338;29;20056;-52
2022/11/08 04:36:49;;;;;;;3.83;2.80;;;9.90;80.50;;;12.83;51.70;97369.84;4908611;29;20060;-54
2022/11/08 04:39:18;;;;;;;4.70;2.73;;;9.90;80.30;;;12.74;51.59;97361.91;4908498;29;20052;-53
2022/11/08 04:41:46;;;;;;;4.73;2.37;;;9.80;80.30;;;12.71;51.59;97364.09;4908331;29;20052;-53
2022/11/08 04:44:17;;;;;;;4.13;2.60;;;9.70;81.10;;;12.67;51.76;97354.81;4917664;29;20047;-54
2022/11/08 04:46:45;;;;;;;3.93;2.73;;;9.70;81.20;;;12.70;51.84;97363.28;4927106;29;20058;-56
2022/11/08 04:49:13;;;;;;;4.33;2.87;;;9.70;81.00;;;12.70;51.62;97352.59;4927490;29;20052;-54
2022/11/08 04:51:41;;;;;;;4.20;2.80;;;9.70;81.10;;;12.68;51.97;97351.94;4926709;29;20342;-56
2022/11/08 04:54:10;;;;;;;5.63;2.80;;;9.70;81.10;;;12.66;51.75;97353.97;4926819;29;20047;-54
2022/11/08 04:56:40;;;;;;;5.47;2.40;;;9.70;81.40;;;12.67;51.89;97347.59;4926465;29;20062;-52
2022/11/08 04:59:09;;;;;;;4.63;2.73;;;9.70;81.40;;;12.57;52.11;97347.03;4927211;29;20048;-54
2022/11/08 05:01:39;;;;;;;3.57;2.23;;;9.70;81.50;;;12.56;51.89;97343.56;4927561;29;20056;-56
2022/11/08 05:04:07;;;;;;;4.23;2.40;;;9.60;81.50;;;12.61;51.77;97337.66;4924632;29;20056;-55
2022/11/08 05:06:35;;;;;;;4.30;2.40;;;9.70;81.50;;;12.65;51.74;97340.81;4926230;29;20237;-52
2022/11/08 05:09:04;;;;;;;4.43;2.37;;;9.70;81.20;;;12.64;52.04;97337.31;4926737;29;20047;-56
2022/11/08 05:11:32;;;;;;;2.90;2.23;;;9.80;80.90;;;12.66;51.95;97337.97;4926469;29;20058;-57
2022/11/08 05:14:00;;;;;;;4.07;2.40;;;9.80;80.60;;;12.69;52.09;97326.88;4925195;29;20048;-56
2022/11/08 05:16:31;;;;;;;3.33;2.30;;;9.90;80.40;;;12.66;51.89;97332.63;4926811;29;20250;-55
2022/11/08 05:18:59;;;;;;;3.73;1.90;;;9.90;80.30;;;12.72;51.86;97333.72;4924741;29;20056;-54
2022/11/08 05:24:16;;;;;;;3.93;2.17;;;9.90;79.80;;;12.76;51.51;97327.81;4925850;29;20338;-55
2022/11/08 05:26:47;;;;;;;3.80;1.90;;;10.00;79.60;;;12.70;51.76;97335.75;4926575;29;20052;-55
2022/11/08 05:29:16;;;;;;;4.40;3.20;;;9.90;79.30;;;12.76;51.46;97329.69;4927276;29;20058;-52
2022/11/08 05:31:44;;;;;;;3.67;2.13;;;9.90;79.60;;;12.76;51.21;97335.84;4926616;29;20044;-52
2022/11/08 05:34:12;;;;;;;4.07;2.07;;;9.90;79.10;;;12.78;51.26;97323.13;4926190;29;20354;-56
2022/11/08 05:36:40;;;;;;;9.07;3.40;;;9.90;78.70;;;12.80;51.08;97337.13;4925713;29;20281;-52
2022/11/08 05:39:08;;;;;;;3.37;2.00;;;10.00;78.40;;;12.83;50.95;97337.78;4926763;29;20070;-54
2022/11/08 05:41:36;;;;;;;2.63;1.80;;;10.10;78.20;;;12.85;51.07;97331.22;4926269;29;20060;-55
2022/11/08 05:44:05;;;;;;;4.67;2.10;;;10.00;77.50;;;12.77;50.96;97325.97;4929801;29;20373;-52
2022/11/08 05:46:34;;;;;;;3.10;2.03;;;10.00;77.30;;;12.79;50.92;97327.47;4906673;29;20239;-55
2022/11/08 05:49:02;;;;;;;5.13;2.20;;;10.00;78.00;;;12.82;50.97;97326.28;4907595;29;20052;-53
2022/11/08 05:51:31;;;;;;;3.07;1.80;;;10.00;77.60;;;12.84;50.78;97329.59;4907022;29;20052;-53
2022/11/08 05:53:59;;;;;;;2.90;2.10;;;10.00;77.50;;;12.80;50.82;97337.13;4906698;29;20052;-56
2022/11/08 05:56:27;;;;;;;3.20;2.53;;;10.00;77.50;;;12.78;50.95;97331.16;4906792;29;20052;-56
2022/11/08 05:58:55;;;;;;;3.77;2.17;;;10.00;77.20;;;12.76;50.62;97319.81;4906260;29;20347;-52
2022/11/08 06:01:23;;;;;;;4.80;3.07;;;9.90;77.80;;;12.78;50.56;97322.31;4906984;29;20052;-51
2022/11/08 06:03:51;;;;;;;5.90;4.07;;;9.90;77.70;;;12.77;50.55;97315.28;4907294;29;20054;-55
2022/11/08 06:06:21;;;;;;;5.80;3.17;;;9.90;77.30;;;12.77;50.49;97312.63;4906680;29;20071;-56
2022/11/08 06:08:50;;;;;;;6.00;3.47;;;9.90;77.70;;;12.73;50.64;97320.16;4906245;29;20052;-53
2022/11/08 06:11:23;;;;;;;6.43;3.67;;;9.90;77.20;;;12.76;50.39;97317.16;4907114;29;20372;-52
2022/11/08 06:13:52;;;;;;;8.43;4.07;;;9.90;77.50;;;12.77;50.34;97309.94;4906796;29;20048;-56
2022/11/08 06:16:22;;;;;;;6.40;3.37;;;9.80;77.40;;;12.73;50.52;97309.47;4906072;29;20063;-56
2022/11/08 06:18:51;;;;;;;6.53;3.47;;;9.80;77.30;;;12.77;50.43;97323.31;4906486;29;20049;-57
2022/11/08 06:21:20;;;;;;;5.17;3.00;;;9.80;77.20;;;12.73;50.57;97319.34;4907073;29;20212;-52
2022/11/08 06:23:53;;;;;;;6.97;3.10;;;9.80;77.30;;;12.71;50.66;97327.53;4906300;29;20254;-56
2022/11/08 06:26:24;;;;;;;5.13;2.93;;;9.80;77.40;;;12.72;50.44;97321.19;4905974;29;20346;-57
2022/11/08 06:28:52;;;;;;;4.77;2.77;;;9.80;77.10;;;12.72;50.52;97329.22;4906514;29;20353;-54
2022/11/08 06:31:20;;;;;;;4.80;2.17;;;9.80;77.30;;;12.73;50.46;97322.00;4906728;29;20053;-54
2022/11/08 06:33:49;;;;;;;2.93;2.07;;;9.80;77.30;;;12.73;50.03;97317.50;4906451;29;20059;-55
2022/11/08 06:36:19;;;;;;;4.37;2.33;;;9.90;76.80;;;12.70;50.35;97314.38;4905242;29;20063;-53
2022/11/08 06:38:53;;;;;;;3.37;1.97;;;9.80;77.00;;;12.73;50.63;97320.16;4906436;29;20056;-55
2022/11/08 06:41:22;;;;;;;3.60;2.00;;;9.80;76.80;;;12.75;50.12;97312.81;4906556;29;20048;-56
2022/11/08 06:43:50;;;;;;;4.03;1.97;;;9.80;76.70;;;12.72;50.28;97307.84;4914356;29;20048;-55
2022/11/08 06:46:18;;;;;;;3.27;1.80;;;9.80;77.10;;;12.74;50.52;97315.69;4925177;29;20044;-55
2022/11/08 06:48:47;;;;;;;2.83;1.90;;;9.80;77.40;;;12.79;50.44;97311.44;4925186;29;20052;-59
2022/11/08 06:51:17;;;;;;;3.00;2.17;;;9.80;77.70;;;12.85;50.12;97320.53;4925298;29;20088;-58
2022/11/08 06:53:46;;;;;;;3.77;2.00;;;9.90;77.60;;;12.92;50.27;97318.81;4925315;29;20055;-53
2022/11/08 06:56:14;;;;;;;4.17;2.17;;;9.90;77.50;;;12.93;50.48;97324.97;4925377;29;20056;-55
2022/11/08 06:58:42;;;;;;;2.77;1.73;;;9.90;77.30;;;12.95;50.12;97320.28;4925395;29;20060;-57
2022/11/08 07:01:10;;;;;;;4.10;2.10;;;9.90;77.40;;;12.99;49.89;97325.09;4923848;29;20056;-55
2022/11/08 07:03:39;;;;;;;3.30;1.77;;;10.00;76.80;;;13.02;49.93;97318.53;4924747;29;20062;-56
2022/11/08 07:06:07;;;;;;;4.57;2.10;;;10.10;76.60;;;13.00;49.69;97331.25;4924397;29;20238;-56
2022/11/08 07:08:35;;;;;;;3.67;1.83;;;10.10;76.20;;;12.97;49.73;97332.44;4925280;29;20048;-55
2022/11/08 07:11:04;;;;;;;2.40;2.00;;;10.10;75.90;;;12.96;49.67;97330.78;4925231;29;20048;-53
2022/11/08 07:13:32;;;;;;;3.53;2.53;;;10.10;75.50;;;12.98;49.91;97339.44;4925012;29;20048;-56
2022/11/08 07:16:01;;;;;;;3.37;2.50;;;10.20;75.50;;;12.97;49.82;97335.13;4925474;29;20075;-55
2022/11/08 07:18:29;;;;;;;3.47;2.30;;;10.10;75.50;;;12.96;49.70;97333.44;4924640;29;20056;-55
2022/11/08 07:21:02;;;;;;;4.40;2.50;;;10.10;75.70;;;12.99;49.89;97337.63;4927553;29;20058;-57
2022/11/08 07:23:31;;;;;;;2.67;1.80;;;10.10;75.50;;;12.98;49.70;97338.63;4928544;29;20052;-55
2022/11/08 07:26:04;;;;;;;3.17;2.40;;;10.10;75.70;;;12.88;49.76;97340.75;4928590;29;20044;-52
2022/11/08 07:28:32;;;;;;;3.10;1.80;;;10.10;75.50;;;13.02;49.49;97331.06;4928762;29;20380;-51
2022/11/08 07:31:03;;;;;;;4.03;2.13;;;10.10;75.70;;;13.03;49.72;97330.03;4928521;29;20366;-51
2022/11/08 07:33:32;;;;;;;2.90;1.90;;;10.10;75.10;;;13.07;49.51;97329.50;4928565;29;20246;-56
2022/11/08 07:36:00;;;;;;;2.83;2.00;;;10.20;75.30;;;13.07;49.30;97328.69;4927004;29;20056;-55
2022/11/08 07:38:29;;;;;;;2.17;1.77;;;10.20;73.90;;;13.04;49.55;97326.38;4928461;29;20052;-53
2022/11/08 07:41:00;;;;;;;3.17;1.93;;;10.20;75.00;;;13.14;49.19;97327.75;4928177;29;20070;-54
2022/11/08 07:43:29;;;;;;;4.07;1.87;;;10.30;74.80;;;13.24;49.13;97332.81;4923147;29;20257;-50
2022/11/08 07:46:08;;;;;;;3.97;1.87;;;10.40;74.50;;;13.30;49.39;97321.41;4908982;29;20353;-54
2022/11/08 07:48:36;;;;;;;4.07;2.30;;;10.50;74.30;;;13.41;49.12;97316.59;4909529;29;20056;-52
2022/11/08 07:51:05;;;;;;;2.60;1.80;;;10.60;74.00;;;13.50;48.84;97305.59;4909109;29;20048;-55
2022/11/08 07:53:33;;;;;;;6.07;2.30;;;10.70;73.70;;;13.58;48.91;97291.28;4908605;29;20075;-54
2022/11/08 07:56:01;;;;;;;2.80;2.30;;;10.80;73.60;;;13.65;48.90;97296.69;4909189;29;20063;-60
2022/11/08 07:58:29;;;;;;;2.90;1.83;;;10.80;73.50;;;13.67;48.91;97286.66;4908142;29;20053;-61
2022/11/08 08:01:05;;;;;;;3.40;2.17;;;10.90;73.50;;;13.67;48.90;97290.16;4909189;29;20052;-61
2022/11/08 08:03:34;;;;;;;4.07;2.83;;;11.00;72.90;;;13.68;48.93;97305.19;4908553;29;20058;-61
2022/11/08 08:06:02;;;;;;;4.93;2.50;;;11.00;72.80;;;13.68;49.12;97310.53;4905624;29;20048;-61
2022/11/08 08:08:30;;;;;;;4.63;2.60;;;11.00;73.10;;;13.74;49.04;97308.94;4909212;29;20048;-61
2022/11/08 08:11:00;;;;;;;5.63;2.63;;;11.00;73.10;;;13.79;49.07;97314.56;4909119;29;20358;-61
2022/11/08 08:13:29;;;;;;;4.90;2.33;;;11.00;73.60;;;13.87;49.30;97316.28;4908427;29;20059;-61
2022/11/08 08:15:59;;;;;;;4.73;2.13;;;11.10;74.10;;;13.94;49.01;97306.50;4909422;29;20246;-61
2022/11/08 08:18:29;;;;;;;2.70;1.60;;;11.10;73.70;;;14.04;48.93;97319.56;4908861;29;20052;-61
2022/11/08 08:20:57;;;;;;;3.83;1.80;;;11.30;73.30;;;14.13;48.37;97326.41;4907810;29;20052;-60
2022/11/08 08:23:26;;;;;;;2.20;1.53;;;11.40;71.20;;;14.23;48.46;97329.63;4903037;29;20053;-58
2022/11/08 08:25:54;;;;;;;3.72;2.30;;;11.50;72.10;;;14.32;48.45;97333.81;4900855;29;20106;-55
2022/11/08 08:28:23;;;;;;;2.87;2.13;;;11.60;72.10;;;14.40;48.09;97332.84;4898951;29;20234;-55
2022/11/08 08:30:51;;;;;;;4.30;2.08;;;11.70;71.70;;;14.48;47.97;97323.84;4907652;29;20047;-55
2022/11/08 08:33:19;;;;;;;2.67;1.63;;;11.70;71.10;;;14.55;47.76;97335.44;4907630;29;20060;-58
2022/11/08 08:35:59;;;;;;;2.35;1.90;;;11.80;70.80;;;14.62;47.97;97328.31;4907777;29;20053;-59
2022/11/08 08:38:32;;;;;;;2.92;1.98;;;11.90;71.00;;;14.72;47.78;97330.66;4907530;29;20048;-58
2022/11/08 08:41:03;;;;;;;4.32;2.00;;;12.00;70.80;;;14.74;47.61;97329.44;4908209;29;20056;-58
2022/11/08 08:43:32;;;;;;;3.92;2.35;;;12.00;70.30;;;14.83;47.40;97324.78;4913873;29;20380;-58
2022/11/08 08:46:03;;;;;;;3.65;1.95;;;12.10;70.30;;;14.87;47.34;97339.44;4927115;29;20250;-57
2022/11/08 08:48:32;;;;;;;2.55;1.88;;;12.20;69.70;;;14.88;47.14;97335.72;4926298;29;20052;-57
2022/11/08 08:51:00;;;;;;;2.17;1.70;;;12.20;69.50;;;14.91;47.13;97343.38;4927292;29;20056;-58
2022/11/08 08:53:29;;;;;;;4.50;1.98;;;12.20;69.70;;;14.92;47.12;97336.97;4925644;29;20090;-58
2022/11/08 08:55:57;;;;;;;4.57;2.10;;;12.20;69.60;;;14.98;47.18;97343.41;4926611;29;20060;-58
2022/11/08 08:58:25;;;;;;;3.38;1.73;;;12.20;69.90;;;15.03;47.17;97340.97;4926841;29;20054;-58
2022/11/08 09:00:53;;;;;;;2.30;1.75;;;12.30;68.50;;;15.04;47.14;97341.78;4927152;29;20069;-59
2022/11/08 09:03:41;;;;;;;3.90;1.92;;;12.30;69.70;;;15.05;47.09;97338.91;4926611;29;20060;-59
2022/11/08 09:06:09;;;;;;;3.33;2.08;;;12.20;69.80;;;15.01;47.16;97343.03;4925815;29;20047;-58
2022/11/08 09:08:37;;;;;;;3.10;1.80;;;12.20;69.10;;;14.96;47.20;97342.78;4926536;29;20370;-58
2022/11/08 09:11:06;;;;;;;4.00;1.85;;;12.20;69.90;;;14.99;47.04;97344.25;4926893;29;20238;-58
2022/11/08 09:13:34;;;;;;;3.13;1.95;;;12.20;70.00;;;14.99;47.07;97342.41;4925078;29;20055;-58
2022/11/08 09:16:02;;;;;;;2.83;1.83;;;12.30;69.90;;;14.97;47.27;97341.75;4926710;29;20052;-58
2022/11/08 09:18:31;;;;;;;3.03;1.38;;;12.30;69.70;;;15.02;46.89;97362.59;4925439;29;20158;-58
2022/11/08 09:21:00;;;;;;;6.22;1.83;;;12.30;69.50;;;15.03;47.23;97362.41;4925687;29;20056;-59
2022/11/08 09:23:28;;;;;;;3.25;1.83;;;12.30;69.60;;;15.07;47.13;97368.22;4917330;29;20212;-58
2022/11/08 09:25:59;;;;;;;4.30;1.88;;;12.30;69.70;;;15.10;47.18;97373.16;4896895;29;20063;-57
2022/11/08 09:28:31;;;;;;;3.05;1.60;;;12.30;69.80;;;15.11;47.20;97375.66;4902653;29;20045;-60
2022/11/08 09:31:08;;;;;;;2.80;2.00;;;12.30;69.30;;;15.10;47.27;97376.72;4907083;29;20049;-58
2022/11/08 09:33:39;;;;;;;3.30;1.75;;;12.30;69.50;;;15.11;47.26;97374.84;4907326;29;20070;-58
2022/11/08 09:36:12;;;;;;;3.53;1.63;;;12.40;69.80;;;15.13;47.33;97376.28;4907138;29;20051;-57
2022/11/08 09:38:40;;;;;;;3.30;2.33;;;12.30;70.20;;;15.17;47.12;97374.06;4906494;29;20053;-59
2022/11/08 09:41:33;;;;;;;2.78;1.50;;;12.40;69.90;;;15.18;47.47;97370.34;4907012;29;20053;-59
2022/11/08 09:44:22;;;;;;;3.00;1.77;;;12.40;70.30;;;15.23;47.42;97367.06;4916744;29;20052;-59
2022/11/08 09:47:01;;;;;;;2.58;1.70;;;12.50;70.40;;;15.31;47.69;97377.63;4926286;29;20052;-59
2022/11/08 09:49:40;;;;;;;4.53;1.65;;;12.60;70.40;;;15.37;47.41;97379.53;4925180;29;20048;-59
2022/11/08 09:52:15;;;;;;;3.10;1.80;;;12.60;70.10;;;15.44;46.98;97366.97;4924969;29;20075;-59
2022/11/08 09:54:46;;;;;;;2.75;1.75;;;12.70;69.90;;;15.48;47.29;97364.72;4924957;29;20048;-59
2022/11/08 09:57:54;;;;;;;4.15;2.10;;;12.80;69.70;;;15.54;47.42;97372.78;4925028;29;20055;-59
2022/11/08 10:00:22;;;;;;;3.35;1.60;;;12.90;68.90;;;15.68;47.27;97370.19;4925921;29;20059;-59
2022/11/08 10:02:50;;;;;;;3.47;2.33;;;13.00;69.60;;;15.74;46.75;97367.56;4925594;29;20051;-58
2022/11/08 10:05:19;;;;;;;3.45;1.90;;;13.10;69.10;;;15.76;46.98;97370.06;4925693;29;20056;-59
2022/11/08 10:08:19;;;;;;;3.13;2.22;;;13.10;69.30;;;15.84;47.14;97360.97;4924452;29;20047;-59
2022/11/08 10:11:14;;;;;;;3.72;1.60;;;13.20;69.30;;;15.95;47.01;97365.75;4926349;29;20056;-59
2022/11/08 10:14:10;;;;;;;4.18;1.77;;;13.20;68.70;;;15.93;47.09;97357.91;4925348;29;20058;-59
2022/11/08 10:16:56;;;;;;;4.85;2.00;;;13.20;69.60;;;15.93;47.27;97355.22;4925143;29;20082;-59
2022/11/08 10:19:36;;;;;;;2.95;2.05;;;13.30;69.70;;;15.94;47.59;97356.06;4924733;29;20052;-56
2022/11/08 10:22:28;;;;;;;2.70;2.30;;;13.30;70.00;;;15.90;47.42;97352.94;4926095;29;20056;-59
2022/11/08 10:25:22;;;;;;;2.85;2.17;;;13.20;70.30;;;15.86;48.00;97346.34;4923868;29;20066;-58
2022/11/08 10:28:52;;;;;;;2.45;1.80;;;13.20;70.60;;;15.87;47.73;97342.59;4924822;29;20048;-59
2022/11/08 10:31:20;;;;;;;6.03;1.95;;;13.20;70.70;;;15.91;47.82;97346.53;4925103;29;20161;-59
2022/11/08 10:33:56;;;;;;;3.50;1.98;;;13.20;71.00;;;15.90;47.79;97344.09;4924184;29;20070;-59
2022/11/08 10:36:59;;;;;;;3.70;2.03;;;13.20;70.70;;;15.90;47.59;97339.53;4926072;29;20063;-59
2022/11/08 10:39:33;;;;;;;4.50;2.10;;;13.30;70.30;;;15.95;47.38;97344.28;4919172;29;20064;-59
2022/11/08 10:42:20;;;;;;;;;;;13.40;70.10;;;16.08;47.47;97330.06;4924646;29;20246;-59
2022/11/08 10:44:49;;;;;;;2.35;1.65;;;13.40;69.10;;;16.03;47.30;97333.38;4909664;29;19942;-58
2022/11/08 10:47:37;;;;;;;4.60;2.00;;;13.40;70.10;;;16.04;47.67;97336.88;4906467;29;20048;-58
2022/11/08 10:50:28;;;;;;;3.45;1.77;;;13.40;69.70;;;16.06;47.41;97337.50;4905727;29;20048;-59
2022/11/08 10:53:03;;;;;;;4.15;1.65;;;13.40;69.50;;;16.06;47.22;97330.28;4905569;29;20048;-59
2022/11/08 10:55:37;;;;;;;2.40;1.65;;;13.40;69.60;;;16.11;47.63;97329.66;4907763;29;20050;-59
2022/11/08 10:58:29;;;;;;;3.53;2.00;;;13.50;70.10;;;16.20;47.50;97330.28;4910623;29;20049;-58